sensor_id;sensor_type;location;lat;lon;timestamp;P1;durP1;ratioP1;P2;durP2;ratioP2
2956;SDS011;1488;51.548;7.222;2023-03-13T00:02:19;2.00;;;1.20;;
2956;SDS011;1488;51.548;7.222;2023-03-13T00:04:48;1.90;;;1.30;;
2956;SDS011;1488;51.548;7.222;2023-03-13T00:07:15;3.23;;;1.60;;
2956;SDS011;1488;51.548;7.222;2023-03-13T00:09:41;3.57;;;1.80;;
2956;SDS011;1488;51.548;7.222;2023-03-13T00:12:08;1.60;;;1.40;;
2956;SDS011;1488;51.548;7.222;2023-03-13T00:14:35;3.17;;;1.53;;
2956;SDS011;1488;51.548;7.222;2023-03-13T00:17:02;2.57;;;1.40;;
2956;SDS011;1488;51.548;7.222;2023-03-13T00:19:29;2.43;;;1.40;;
2956;SDS011;1488;51.548;7.222;2023-03-13T00:21:57;1.80;;;1.60;;
2956;SDS011;1488;51.548;7.222;2023-03-13T00:24:24;3.00;;;1.30;;
2956;SDS011;1488;51.548;7.222;2023-03-13T00:26:51;1.77;;;1.20;;
2956;SDS011;1488;51.548;7.222;2023-03-13T00:29:17;1.53;;;1.20;;
2956;SDS011;1488;51.548;7.222;2023-03-13T00:31:46;1.77;;;1.20;;
2956;SDS011;1488;51.548;7.222;2023-03-13T00:34:13;1.57;;;1.20;;
2956;SDS011;1488;51.548;7.222;2023-03-13T00:36:40;3.17;;;1.53;;
2956;SDS011;1488;51.548;7.222;2023-03-13T00:39:08;2.53;;;1.50;;
2956;SDS011;1488;51.548;7.222;2023-03-13T00:41:35;1.97;;;1.10;;
2956;SDS011;1488;51.548;7.222;2023-03-13T00:44:03;3.63;;;1.30;;
2956;SDS011;1488;51.548;7.222;2023-03-13T00:46:30;2.47;;;1.10;;
2956;SDS011;1488;51.548;7.222;2023-03-13T00:48:57;1.83;;;1.20;;
2956;SDS011;1488;51.548;7.222;2023-03-13T00:51:24;2.10;;;1.20;;
2956;SDS011;1488;51.548;7.222;2023-03-13T00:53:51;2.10;;;1.40;;
2956;SDS011;1488;51.548;7.222;2023-03-13T00:56:20;2.17;;;1.20;;
2956;SDS011;1488;51.548;7.222;2023-03-13T00:58:47;1.70;;;1.60;;
2956;SDS011;1488;51.548;7.222;2023-03-13T01:01:15;2.43;;;1.30;;
2956;SDS011;1488;51.548;7.222;2023-03-13T01:03:44;1.60;;;1.17;;
2956;SDS011;1488;51.548;7.222;2023-03-13T01:06:13;2.83;;;1.30;;
2956;SDS011;1488;51.548;7.222;2023-03-13T01:08:41;1.90;;;1.27;;
2956;SDS011;1488;51.548;7.222;2023-03-13T01:11:10;2.00;;;1.47;;
2956;SDS011;1488;51.548;7.222;2023-03-13T01:13:39;2.17;;;1.20;;
2956;SDS011;1488;51.548;7.222;2023-03-13T01:16:07;1.63;;;1.17;;
2956;SDS011;1488;51.548;7.222;2023-03-13T01:18:35;3.63;;;1.50;;
2956;SDS011;1488;51.548;7.222;2023-03-13T01:21:04;2.00;;;1.20;;
2956;SDS011;1488;51.548;7.222;2023-03-13T01:23:31;5.13;;;2.40;;
2956;SDS011;1488;51.548;7.222;2023-03-13T01:25:58;2.20;;;1.20;;
2956;SDS011;1488;51.548;7.222;2023-03-13T01:28:26;1.60;;;1.20;;
2956;SDS011;1488;51.548;7.222;2023-03-13T01:30:54;1.53;;;1.20;;
2956;SDS011;1488;51.548;7.222;2023-03-13T01:33:21;2.47;;;1.43;;
2956;SDS011;1488;51.548;7.222;2023-03-13T01:35:48;2.50;;;1.50;;
2956;SDS011;1488;51.548;7.222;2023-03-13T01:38:14;1.70;;;1.07;;
2956;SDS011;1488;51.548;7.222;2023-03-13T01:40:42;2.40;;;1.30;;
2956;SDS011;1488;51.548;7.222;2023-03-13T01:43:17;2.43;;;1.23;;
2956;SDS011;1488;51.548;7.222;2023-03-13T01:45:55;2.57;;;1.20;;
2956;SDS011;1488;51.548;7.222;2023-03-13T01:48:25;2.43;;;1.83;;
2956;SDS011;1488;51.548;7.222;2023-03-13T01:51:07;3.20;;;1.43;;
2956;SDS011;1488;51.548;7.222;2023-03-13T01:53:37;2.03;;;1.20;;
2956;SDS011;1488;51.548;7.222;2023-03-13T01:56:07;3.20;;;1.37;;
2956;SDS011;1488;51.548;7.222;2023-03-13T01:58:38;2.57;;;1.70;;
2956;SDS011;1488;51.548;7.222;2023-03-13T02:01:06;2.67;;;1.30;;
2956;SDS011;1488;51.548;7.222;2023-03-13T02:03:34;1.30;;;0.93;;
2956;SDS011;1488;51.548;7.222;2023-03-13T02:06:02;2.33;;;1.43;;
2956;SDS011;1488;51.548;7.222;2023-03-13T02:08:33;7.87;;;1.53;;
2956;SDS011;1488;51.548;7.222;2023-03-13T02:11:06;2.40;;;1.27;;
2956;SDS011;1488;51.548;7.222;2023-03-13T02:13:38;2.40;;;1.60;;
2956;SDS011;1488;51.548;7.222;2023-03-13T02:16:07;2.13;;;1.27;;
2956;SDS011;1488;51.548;7.222;2023-03-13T02:18:35;2.17;;;1.20;;
2956;SDS011;1488;51.548;7.222;2023-03-13T02:21:05;1.40;;;1.20;;
2956;SDS011;1488;51.548;7.222;2023-03-13T02:23:38;2.37;;;1.30;;
2956;SDS011;1488;51.548;7.222;2023-03-13T02:26:13;1.97;;;1.10;;
2956;SDS011;1488;51.548;7.222;2023-03-13T02:28:40;1.73;;;1.10;;
2956;SDS011;1488;51.548;7.222;2023-03-13T02:31:07;1.90;;;1.23;;
2956;SDS011;1488;51.548;7.222;2023-03-13T02:33:36;1.77;;;0.90;;
2956;SDS011;1488;51.548;7.222;2023-03-13T02:36:05;1.67;;;1.30;;
2956;SDS011;1488;51.548;7.222;2023-03-13T02:38:34;1.40;;;0.93;;
2956;SDS011;1488;51.548;7.222;2023-03-13T02:41:04;1.87;;;1.73;;
2956;SDS011;1488;51.548;7.222;2023-03-13T02:43:34;1.60;;;1.10;;
2956;SDS011;1488;51.548;7.222;2023-03-13T02:46:03;1.60;;;1.10;;
2956;SDS011;1488;51.548;7.222;2023-03-13T02:48:33;2.40;;;1.50;;
2956;SDS011;1488;51.548;7.222;2023-03-13T02:51:02;2.50;;;1.10;;
2956;SDS011;1488;51.548;7.222;2023-03-13T02:53:31;2.97;;;1.50;;
2956;SDS011;1488;51.548;7.222;2023-03-13T02:56:00;1.97;;;1.30;;
2956;SDS011;1488;51.548;7.222;2023-03-13T02:58:35;1.83;;;0.97;;
2956;SDS011;1488;51.548;7.222;2023-03-13T03:01:05;2.20;;;1.30;;
2956;SDS011;1488;51.548;7.222;2023-03-13T03:03:32;1.60;;;1.13;;
2956;SDS011;1488;51.548;7.222;2023-03-13T03:05:59;2.30;;;1.03;;
2956;SDS011;1488;51.548;7.222;2023-03-13T03:08:27;2.03;;;1.30;;
2956;SDS011;1488;51.548;7.222;2023-03-13T03:10:53;1.73;;;1.40;;
2956;SDS011;1488;51.548;7.222;2023-03-13T03:13:20;1.80;;;0.97;;
2956;SDS011;1488;51.548;7.222;2023-03-13T03:15:49;1.60;;;1.00;;
2956;SDS011;1488;51.548;7.222;2023-03-13T03:18:16;3.53;;;1.13;;
2956;SDS011;1488;51.548;7.222;2023-03-13T03:20:42;2.00;;;1.00;;
2956;SDS011;1488;51.548;7.222;2023-03-13T03:23:09;1.67;;;1.33;;
2956;SDS011;1488;51.548;7.222;2023-03-13T03:25:36;2.40;;;1.33;;
2956;SDS011;1488;51.548;7.222;2023-03-13T03:28:03;1.50;;;1.03;;
2956;SDS011;1488;51.548;7.222;2023-03-13T03:30:30;2.53;;;1.10;;
2956;SDS011;1488;51.548;7.222;2023-03-13T03:32:58;1.40;;;0.90;;
2956;SDS011;1488;51.548;7.222;2023-03-13T03:35:27;2.13;;;0.90;;
2956;SDS011;1488;51.548;7.222;2023-03-13T03:37:54;1.60;;;0.97;;
2956;SDS011;1488;51.548;7.222;2023-03-13T03:40:21;2.40;;;1.93;;
2956;SDS011;1488;51.548;7.222;2023-03-13T03:42:47;1.83;;;1.00;;
2956;SDS011;1488;51.548;7.222;2023-03-13T03:45:14;3.60;;;1.63;;
2956;SDS011;1488;51.548;7.222;2023-03-13T03:47:41;2.07;;;1.20;;
2956;SDS011;1488;51.548;7.222;2023-03-13T03:50:10;2.00;;;1.20;;
2956;SDS011;1488;51.548;7.222;2023-03-13T03:52:37;1.67;;;0.97;;
2956;SDS011;1488;51.548;7.222;2023-03-13T03:55:04;1.60;;;1.13;;
2956;SDS011;1488;51.548;7.222;2023-03-13T03:57:31;1.30;;;1.00;;
2956;SDS011;1488;51.548;7.222;2023-03-13T03:59:58;1.40;;;1.10;;
2956;SDS011;1488;51.548;7.222;2023-03-13T04:02:25;1.83;;;1.13;;
2956;SDS011;1488;51.548;7.222;2023-03-13T04:04:52;1.70;;;1.20;;
2956;SDS011;1488;51.548;7.222;2023-03-13T04:07:20;2.10;;;1.10;;
2956;SDS011;1488;51.548;7.222;2023-03-13T04:09:47;2.77;;;1.13;;
2956;SDS011;1488;51.548;7.222;2023-03-13T04:12:14;1.77;;;1.03;;
2956;SDS011;1488;51.548;7.222;2023-03-13T04:14:40;2.13;;;1.00;;
2956;SDS011;1488;51.548;7.222;2023-03-13T04:17:07;1.30;;;0.97;;
2956;SDS011;1488;51.548;7.222;2023-03-13T04:19:34;1.70;;;1.30;;
2956;SDS011;1488;51.548;7.222;2023-03-13T04:22:01;2.10;;;1.60;;
2956;SDS011;1488;51.548;7.222;2023-03-13T04:24:29;1.23;;;0.90;;
2956;SDS011;1488;51.548;7.222;2023-03-13T04:26:56;1.77;;;1.10;;
2956;SDS011;1488;51.548;7.222;2023-03-13T04:29:23;1.43;;;0.90;;
2956;SDS011;1488;51.548;7.222;2023-03-13T04:31:50;1.90;;;1.27;;
2956;SDS011;1488;51.548;7.222;2023-03-13T04:34:17;1.97;;;1.00;;
2956;SDS011;1488;51.548;7.222;2023-03-13T04:36:43;1.43;;;1.00;;
2956;SDS011;1488;51.548;7.222;2023-03-13T04:39:10;2.27;;;1.20;;
2956;SDS011;1488;51.548;7.222;2023-03-13T04:41:39;1.50;;;1.20;;
2956;SDS011;1488;51.548;7.222;2023-03-13T04:44:06;1.50;;;0.90;;
2956;SDS011;1488;51.548;7.222;2023-03-13T04:46:32;1.33;;;1.10;;
2956;SDS011;1488;51.548;7.222;2023-03-13T04:48:59;1.93;;;1.17;;
2956;SDS011;1488;51.548;7.222;2023-03-13T04:51:26;1.53;;;1.00;;
2956;SDS011;1488;51.548;7.222;2023-03-13T04:53:53;2.07;;;1.27;;
2956;SDS011;1488;51.548;7.222;2023-03-13T04:56:20;1.20;;;0.90;;
2956;SDS011;1488;51.548;7.222;2023-03-13T04:59:00;2.27;;;1.17;;
2956;SDS011;1488;51.548;7.222;2023-03-13T05:01:26;2.80;;;0.97;;
2956;SDS011;1488;51.548;7.222;2023-03-13T05:03:53;1.50;;;1.03;;
2956;SDS011;1488;51.548;7.222;2023-03-13T05:06:20;1.57;;;1.07;;
2956;SDS011;1488;51.548;7.222;2023-03-13T05:08:47;2.20;;;1.10;;
2956;SDS011;1488;51.548;7.222;2023-03-13T05:11:14;1.40;;;1.00;;
2956;SDS011;1488;51.548;7.222;2023-03-13T05:13:40;1.93;;;1.00;;
2956;SDS011;1488;51.548;7.222;2023-03-13T05:16:09;4.10;;;1.03;;
2956;SDS011;1488;51.548;7.222;2023-03-13T05:18:35;1.37;;;0.90;;
2956;SDS011;1488;51.548;7.222;2023-03-13T05:21:03;1.50;;;1.00;;
2956;SDS011;1488;51.548;7.222;2023-03-13T05:23:30;1.20;;;1.00;;
2956;SDS011;1488;51.548;7.222;2023-03-13T05:25:58;1.27;;;0.90;;
2956;SDS011;1488;51.548;7.222;2023-03-13T05:28:25;1.30;;;0.90;;
2956;SDS011;1488;51.548;7.222;2023-03-13T05:30:52;1.73;;;1.07;;
2956;SDS011;1488;51.548;7.222;2023-03-13T05:33:20;2.80;;;1.10;;
2956;SDS011;1488;51.548;7.222;2023-03-13T05:35:47;1.67;;;1.07;;
2956;SDS011;1488;51.548;7.222;2023-03-13T05:38:14;2.23;;;1.50;;
2956;SDS011;1488;51.548;7.222;2023-03-13T05:40:41;1.30;;;0.90;;
2956;SDS011;1488;51.548;7.222;2023-03-13T05:43:07;1.10;;;0.63;;
2956;SDS011;1488;51.548;7.222;2023-03-13T05:45:34;1.10;;;0.80;;
2956;SDS011;1488;51.548;7.222;2023-03-13T05:48:01;1.10;;;0.80;;
2956;SDS011;1488;51.548;7.222;2023-03-13T05:50:29;1.70;;;1.20;;
2956;SDS011;1488;51.548;7.222;2023-03-13T05:52:56;1.20;;;0.80;;
2956;SDS011;1488;51.548;7.222;2023-03-13T05:55:23;1.50;;;1.17;;
2956;SDS011;1488;51.548;7.222;2023-03-13T05:57:50;1.30;;;0.80;;
2956;SDS011;1488;51.548;7.222;2023-03-13T06:00:17;1.40;;;0.90;;
2956;SDS011;1488;51.548;7.222;2023-03-13T06:02:44;1.37;;;1.00;;
2956;SDS011;1488;51.548;7.222;2023-03-13T06:05:11;1.40;;;0.80;;
2956;SDS011;1488;51.548;7.222;2023-03-13T06:07:39;1.70;;;1.00;;
2956;SDS011;1488;51.548;7.222;2023-03-13T06:10:07;1.30;;;0.90;;
2956;SDS011;1488;51.548;7.222;2023-03-13T06:12:34;1.40;;;0.87;;
2956;SDS011;1488;51.548;7.222;2023-03-13T06:15:01;1.60;;;0.80;;
2956;SDS011;1488;51.548;7.222;2023-03-13T06:17:28;1.10;;;0.80;;
2956;SDS011;1488;51.548;7.222;2023-03-13T06:19:55;1.07;;;0.90;;
2956;SDS011;1488;51.548;7.222;2023-03-13T06:22:22;1.93;;;1.00;;
2956;SDS011;1488;51.548;7.222;2023-03-13T06:24:50;1.20;;;0.80;;
2956;SDS011;1488;51.548;7.222;2023-03-13T06:27:17;1.30;;;0.80;;
2956;SDS011;1488;51.548;7.222;2023-03-13T06:29:44;1.20;;;0.70;;
2956;SDS011;1488;51.548;7.222;2023-03-13T06:32:11;1.30;;;1.00;;
2956;SDS011;1488;51.548;7.222;2023-03-13T06:34:38;1.30;;;0.83;;
2956;SDS011;1488;51.548;7.222;2023-03-13T06:37:04;2.00;;;0.90;;
2956;SDS011;1488;51.548;7.222;2023-03-13T06:39:32;1.30;;;0.70;;
2956;SDS011;1488;51.548;7.222;2023-03-13T06:42:00;2.33;;;1.00;;
2956;SDS011;1488;51.548;7.222;2023-03-13T06:44:27;1.50;;;1.00;;
2956;SDS011;1488;51.548;7.222;2023-03-13T06:46:54;1.20;;;0.87;;
2956;SDS011;1488;51.548;7.222;2023-03-13T06:49:20;1.43;;;0.90;;
2956;SDS011;1488;51.548;7.222;2023-03-13T06:51:47;1.20;;;0.87;;
2956;SDS011;1488;51.548;7.222;2023-03-13T06:54:14;1.30;;;0.80;;
2956;SDS011;1488;51.548;7.222;2023-03-13T06:56:41;1.00;;;0.70;;
2956;SDS011;1488;51.548;7.222;2023-03-13T06:59:09;1.07;;;0.80;;
2956;SDS011;1488;51.548;7.222;2023-03-13T07:01:36;1.00;;;0.70;;
2956;SDS011;1488;51.548;7.222;2023-03-13T07:04:03;1.20;;;0.80;;
2956;SDS011;1488;51.548;7.222;2023-03-13T07:06:29;1.10;;;0.80;;
2956;SDS011;1488;51.548;7.222;2023-03-13T07:08:56;1.40;;;1.00;;
2956;SDS011;1488;51.548;7.222;2023-03-13T07:11:23;1.00;;;0.77;;
2956;SDS011;1488;51.548;7.222;2023-03-13T07:13:52;1.20;;;0.80;;
2956;SDS011;1488;51.548;7.222;2023-03-13T07:16:21;1.50;;;1.10;;
2956;SDS011;1488;51.548;7.222;2023-03-13T07:18:49;5.27;;;1.30;;
2956;SDS011;1488;51.548;7.222;2023-03-13T07:21:16;2.90;;;1.10;;
2956;SDS011;1488;51.548;7.222;2023-03-13T07:23:43;3.77;;;1.00;;
2956;SDS011;1488;51.548;7.222;2023-03-13T07:26:10;2.87;;;0.97;;
2956;SDS011;1488;51.548;7.222;2023-03-13T07:28:41;3.83;;;1.43;;
2956;SDS011;1488;51.548;7.222;2023-03-13T20:49:24;8.23;;;6.30;;
2956;SDS011;1488;51.548;7.222;2023-03-13T20:51:51;9.23;;;7.23;;
2956;SDS011;1488;51.548;7.222;2023-03-13T20:54:20;8.17;;;6.40;;
2956;SDS011;1488;51.548;7.222;2023-03-13T20:56:47;6.53;;;5.60;;
2956;SDS011;1488;51.548;7.222;2023-03-13T20:59:14;7.53;;;6.07;;
2956;SDS011;1488;51.548;7.222;2023-03-13T21:01:41;9.43;;;7.60;;
2956;SDS011;1488;51.548;7.222;2023-03-13T21:04:08;7.73;;;6.37;;
2956;SDS011;1488;51.548;7.222;2023-03-13T21:06:37;7.23;;;6.10;;
2956;SDS011;1488;51.548;7.222;2023-03-13T21:09:04;6.57;;;5.90;;
2956;SDS011;1488;51.548;7.222;2023-03-13T21:11:31;6.80;;;5.47;;
2956;SDS011;1488;51.548;7.222;2023-03-13T21:13:58;6.77;;;6.10;;
2956;SDS011;1488;51.548;7.222;2023-03-13T21:16:25;9.47;;;5.43;;
2956;SDS011;1488;51.548;7.222;2023-03-13T21:18:51;6.27;;;5.67;;
2956;SDS011;1488;51.548;7.222;2023-03-13T21:21:18;8.13;;;6.27;;
2956;SDS011;1488;51.548;7.222;2023-03-13T21:23:51;6.27;;;5.63;;
2956;SDS011;1488;51.548;7.222;2023-03-13T21:26:18;6.43;;;5.30;;
2956;SDS011;1488;51.548;7.222;2023-03-13T21:28:45;6.27;;;5.67;;
2956;SDS011;1488;51.548;7.222;2023-03-13T21:31:12;6.47;;;5.67;;
2956;SDS011;1488;51.548;7.222;2023-03-13T21:33:49;5.20;;;4.70;;
2956;SDS011;1488;51.548;7.222;2023-03-13T21:36:17;5.20;;;4.80;;
2956;SDS011;1488;51.548;7.222;2023-03-13T21:38:45;5.23;;;4.67;;
2956;SDS011;1488;51.548;7.222;2023-03-13T21:41:15;5.40;;;4.90;;
2956;SDS011;1488;51.548;7.222;2023-03-13T21:43:44;9.53;;;4.90;;
2956;SDS011;1488;51.548;7.222;2023-03-13T21:46:12;5.90;;;5.30;;
2956;SDS011;1488;51.548;7.222;2023-03-13T21:48:40;5.57;;;4.10;;
2956;SDS011;1488;51.548;7.222;2023-03-13T21:51:09;5.60;;;4.50;;
2956;SDS011;1488;51.548;7.222;2023-03-13T21:53:36;5.80;;;5.13;;
2956;SDS011;1488;51.548;7.222;2023-03-13T21:56:05;4.50;;;4.10;;
2956;SDS011;1488;51.548;7.222;2023-03-13T21:58:34;4.73;;;4.00;;
2956;SDS011;1488;51.548;7.222;2023-03-13T22:01:04;5.60;;;5.10;;
2956;SDS011;1488;51.548;7.222;2023-03-13T22:03:31;4.50;;;4.10;;
2956;SDS011;1488;51.548;7.222;2023-03-13T22:05:58;5.10;;;3.97;;
2956;SDS011;1488;51.548;7.222;2023-03-13T22:08:25;4.97;;;4.10;;
2956;SDS011;1488;51.548;7.222;2023-03-13T22:10:51;4.07;;;3.70;;
2956;SDS011;1488;51.548;7.222;2023-03-13T22:13:19;4.17;;;3.83;;
2956;SDS011;1488;51.548;7.222;2023-03-13T22:15:47;4.30;;;3.90;;
2956;SDS011;1488;51.548;7.222;2023-03-13T22:18:16;5.03;;;3.63;;
2956;SDS011;1488;51.548;7.222;2023-03-13T22:20:44;3.93;;;3.63;;
2956;SDS011;1488;51.548;7.222;2023-03-13T22:23:23;3.97;;;3.57;;
2956;SDS011;1488;51.548;7.222;2023-03-13T22:25:52;7.47;;;4.00;;
2956;SDS011;1488;51.548;7.222;2023-03-13T22:28:21;3.80;;;3.10;;
2956;SDS011;1488;51.548;7.222;2023-03-13T22:30:49;4.30;;;3.83;;
2956;SDS011;1488;51.548;7.222;2023-03-13T22:33:16;4.70;;;3.70;;
2956;SDS011;1488;51.548;7.222;2023-03-13T22:35:43;3.40;;;3.10;;
2956;SDS011;1488;51.548;7.222;2023-03-13T22:38:16;3.47;;;3.20;;
2956;SDS011;1488;51.548;7.222;2023-03-13T22:40:43;3.70;;;3.30;;
2956;SDS011;1488;51.548;7.222;2023-03-13T22:43:09;5.00;;;4.00;;
2956;SDS011;1488;51.548;7.222;2023-03-13T22:45:36;3.27;;;2.97;;
2956;SDS011;1488;51.548;7.222;2023-03-13T22:48:05;4.33;;;3.23;;
2956;SDS011;1488;51.548;7.222;2023-03-13T22:50:32;3.73;;;3.40;;
2956;SDS011;1488;51.548;7.222;2023-03-13T22:52:59;3.93;;;3.30;;
2956;SDS011;1488;51.548;7.222;2023-03-13T22:55:26;2.90;;;2.70;;
2956;SDS011;1488;51.548;7.222;2023-03-13T22:57:53;3.67;;;3.03;;
2956;SDS011;1488;51.548;7.222;2023-03-13T23:00:20;3.67;;;3.20;;
2956;SDS011;1488;51.548;7.222;2023-03-13T23:02:46;2.83;;;2.60;;
2956;SDS011;1488;51.548;7.222;2023-03-13T23:05:15;3.60;;;3.30;;
2956;SDS011;1488;51.548;7.222;2023-03-13T23:07:42;3.00;;;2.80;;
2956;SDS011;1488;51.548;7.222;2023-03-13T23:10:09;3.40;;;3.10;;
2956;SDS011;1488;51.548;7.222;2023-03-13T23:12:37;3.50;;;2.63;;
2956;SDS011;1488;51.548;7.222;2023-03-13T23:15:04;2.37;;;2.17;;
2956;SDS011;1488;51.548;7.222;2023-03-13T23:17:32;2.67;;;2.40;;
2956;SDS011;1488;51.548;7.222;2023-03-13T23:20:00;2.73;;;2.47;;
2956;SDS011;1488;51.548;7.222;2023-03-13T23:22:34;3.30;;;3.00;;
2956;SDS011;1488;51.548;7.222;2023-03-13T23:25:00;4.10;;;2.70;;
2956;SDS011;1488;51.548;7.222;2023-03-13T23:27:28;4.03;;;2.67;;
2956;SDS011;1488;51.548;7.222;2023-03-13T23:29:55;3.00;;;2.70;;
2956;SDS011;1488;51.548;7.222;2023-03-13T23:32:25;4.17;;;3.00;;
2956;SDS011;1488;51.548;7.222;2023-03-13T23:34:52;2.90;;;2.47;;
2956;SDS011;1488;51.548;7.222;2023-03-13T23:37:19;3.40;;;2.80;;
2956;SDS011;1488;51.548;7.222;2023-03-13T23:39:47;3.00;;;2.40;;
2956;SDS011;1488;51.548;7.222;2023-03-13T23:42:14;3.40;;;2.40;;
2956;SDS011;1488;51.548;7.222;2023-03-13T23:44:41;2.80;;;2.60;;
2956;SDS011;1488;51.548;7.222;2023-03-13T23:47:08;2.60;;;2.40;;
2956;SDS011;1488;51.548;7.222;2023-03-13T23:49:34;3.27;;;2.60;;
2956;SDS011;1488;51.548;7.222;2023-03-13T23:52:02;3.00;;;2.50;;
2956;SDS011;1488;51.548;7.222;2023-03-13T23:54:29;3.27;;;2.30;;
2956;SDS011;1488;51.548;7.222;2023-03-13T23:56:57;3.53;;;2.90;;
2956;SDS011;1488;51.548;7.222;2023-03-13T23:59:24;2.37;;;2.17;;
